Time;durP1;ratioP1;P1;durP2;ratioP2;P2;SDS_P1;SDS_P2;PMS_P1;PMS_P2;Temp;Humidity;BMP_temperature;BMP_pressure;BME280_temperature;BME280_humidity;BME280_pressure;Samples;Min_cycle;Max_cycle;Signal;HPM_P1;HPM_P2
2024/02/27 00:01:57;;;;;;;9.83;8.83;;;;;;;;;;5075113;28;20447;-70
2024/02/27 00:04:24;;;;;;;9.37;8.43;;;;;;;;;;5075033;28;20534;-70
2024/02/27 00:06:54;;;;;;;10.60;8.43;;;;;;;;;;5074897;28;20479;-70
2024/02/27 00:09:21;;;;;;;14.23;9.60;;;;;;;;;;5074915;28;20477;-70
2024/02/27 00:11:48;;;;;;;9.57;8.60;;;;;;;;;;5074995;28;20909;-70
2024/02/27 00:14:16;;;;;;;10.70;8.80;;;;;;;;;;5074883;28;20538;-70
2024/02/27 00:16:43;;;;;;;9.80;8.83;;;;;;;;;;5074798;28;20451;-70
2024/02/27 00:19:10;;;;;;;15.00;9.40;;;;;;;;;;5074828;28;20451;-70
2024/02/27 00:21:36;;;;;;;10.63;9.63;;;;;;;;;;5074547;28;20487;-70
2024/02/27 00:24:05;;;;;;;9.97;9.00;;;;;;;;;;5074782;28;20450;-70
2024/02/27 00:26:32;;;;;;;13.50;8.43;;;;;;;;;;5073899;28;20443;-70
2024/02/27 00:28:59;;;;;;;11.77;9.40;;;;;;;;;;5074433;28;20961;-70
2024/02/27 00:31:26;;;;;;;11.00;9.40;;;;;;;;;;5074516;28;20479;-70
2024/02/27 00:33:52;;;;;;;13.00;9.37;;;;;;;;;;5074350;28;20443;-70
2024/02/27 00:36:19;;;;;;;13.43;8.83;;;;;;;;;;5074465;28;20451;-70
2024/02/27 00:38:46;;;;;;;8.93;7.83;;;;;;;;;;5074518;28;20471;-70
2024/02/27 00:41:14;;;;;;;10.70;9.37;;;;;;;;;;5074384;28;20859;-70
2024/02/27 00:43:41;;;;;;;9.57;8.60;;;;;;;;;;5074130;28;20949;-70
2024/02/27 00:46:08;;;;;;;11.00;9.17;;;;;;;;;;5074206;28;20792;-70
2024/02/27 00:48:35;;;;;;;9.50;8.50;;;;;;;;;;5074041;28;20570;-70
2024/02/27 00:51:02;;;;;;;11.25;8.85;;;;;;;;;;5073987;28;20475;-70
2024/02/27 00:53:29;;;;;;;10.60;8.35;;;;;;;;;;5074147;28;20221;-70
2024/02/27 00:55:56;;;;;;;9.25;8.13;;;;;;;;;;5074085;28;20296;-70
2024/02/27 00:58:25;;;;;;;11.10;9.48;;;;;;;;;;5073929;28;20189;-70
2024/02/27 01:00:52;;;;;;;10.93;8.60;;;;;;;;;;5073929;28;20189;-70
2024/02/27 01:03:19;;;;;;;9.20;8.30;;;;;;;;;;5073688;28;20444;-70
2024/02/27 01:05:46;;;;;;;13.43;10.00;;;;;;;;;;5073715;28;20447;-70
2024/02/27 01:08:13;;;;;;;13.77;9.50;;;;;;;;;;5073851;28;20501;-70
2024/02/27 01:10:40;;;;;;;14.88;8.90;;;;;;;;;;5073765;28;20189;-70
2024/02/27 01:13:06;;;;;;;12.53;9.40;;;;;;;;;;5073692;28;20281;-70
2024/02/27 01:15:35;;;;;;;11.43;9.00;;;;;;;;;;5073647;28;20443;-70
2024/02/27 01:18:02;;;;;;;12.05;9.40;;;;;;;;;;5073449;28;20283;-70
2024/02/27 01:20:29;;;;;;;10.33;9.23;;;;;;;;;;5073439;28;20680;-70
2024/02/27 01:22:56;;;;;;;12.30;9.20;;;;;;;;;;5073570;28;20446;-70
2024/02/27 01:25:23;;;;;;;13.27;10.43;;;;;;;;;;5073488;28;20537;-70
2024/02/27 01:27:50;;;;;;;12.27;9.80;;;;;;;;;;5073261;28;20475;-70
2024/02/27 01:30:18;;;;;;;10.63;9.52;;;;;;;;;;5073315;28;20284;-70
2024/02/27 01:32:46;;;;;;;11.07;8.88;;;;;;;;;;5073227;28;20229;-70
2024/02/27 01:35:18;;;;;;;11.32;9.45;;;;;;;;;;5073191;28;20193;-70
2024/02/27 01:37:45;;;;;;;10.35;8.73;;;;;;;;;;5072444;28;20193;-70
2024/02/27 01:40:12;;;;;;;11.57;9.85;;;;;;;;;;5073003;28;20313;-70
2024/02/27 01:42:39;;;;;;;12.63;10.00;;;;;;;;;;5073192;28;20198;-70
2024/02/27 01:45:08;;;;;;;13.70;9.70;;;;;;;;;;5073090;28;20427;-70
2024/02/27 01:47:35;;;;;;;10.10;8.87;;;;;;;;;;5073234;28;20562;-70
2024/02/27 01:50:04;;;;;;;12.07;8.85;;;;;;;;;;5073260;28;20462;-70
2024/02/27 01:52:31;;;;;;;11.05;9.73;;;;;;;;;;5072979;28;20641;-70
2024/02/27 01:54:58;;;;;;;15.03;10.93;;;;;;;;;;5073092;28;20189;-70
2024/02/27 01:57:25;;;;;;;17.13;11.10;;;;;;;;;;5072948;28;20448;-70
2024/02/27 01:59:52;;;;;;;14.10;11.02;;;;;;;;;;5072962;28;20960;-70
2024/02/27 02:02:19;;;;;;;12.40;10.07;;;;;;;;;;5073077;28;20190;-70
2024/02/27 02:04:48;;;;;;;11.10;9.87;;;;;;;;;;5073036;28;21004;-70
2024/02/27 02:07:16;;;;;;;10.40;9.27;;;;;;;;;;5072906;28;20479;-70
2024/02/27 02:09:43;;;;;;;10.70;9.50;;;;;;;;;;5072934;28;20414;-70
2024/02/27 02:12:10;;;;;;;10.87;9.70;;;;;;;;;;5072782;28;20221;-70
2024/02/27 02:14:37;;;;;;;13.20;10.27;;;;;;;;;;5072958;28;20443;-70
2024/02/27 02:17:04;;;;;;;11.40;10.30;;;;;;;;;;5072875;28;20556;-70
2024/02/27 02:19:31;;;;;;;11.60;9.32;;;;;;;;;;5072816;28;20475;-70
2024/02/27 02:21:59;;;;;;;14.17;10.23;;;;;;;;;;5072747;28;20617;-70
2024/02/27 02:24:27;;;;;;;11.07;9.70;;;;;;;;;;5072745;28;20535;-70
2024/02/27 02:26:56;;;;;;;11.20;9.37;;;;;;;;;;5072509;28;20436;-70
2024/02/27 02:29:23;;;;;;;13.32;10.05;;;;;;;;;;5072653;28;21114;-69
2024/02/27 02:31:50;;;;;;;10.83;9.67;;;;;;;;;;5072733;28;20196;-70
2024/02/27 02:34:17;;;;;;;11.97;9.40;;;;;;;;;;5072704;28;20538;-70
2024/02/27 02:36:44;;;;;;;10.40;9.20;;;;;;;;;;5072625;28;20443;-70
2024/02/27 02:39:12;;;;;;;12.03;9.50;;;;;;;;;;5072385;28;20562;-70
2024/02/27 02:41:39;;;;;;;10.77;9.70;;;;;;;;;;5072483;28;20448;-70
2024/02/27 02:44:06;;;;;;;11.07;10.00;;;;;;;;;;5072694;28;20531;-70
2024/02/27 02:46:33;;;;;;;10.90;9.73;;;;;;;;;;5072641;28;20560;-70
2024/02/27 02:49:01;;;;;;;9.90;8.90;;;;;;;;;;5074168;28;20491;-70
2024/02/27 02:51:30;;;;;;;10.50;9.30;;;;;;;;;;5076382;28;20193;-70
2024/02/27 02:53:57;;;;;;;12.88;9.68;;;;;;;;;;5076209;28;20382;-70
2024/02/27 02:56:25;;;;;;;11.27;9.07;;;;;;;;;;5076430;28;20200;-70
2024/02/27 02:58:52;;;;;;;12.70;9.63;;;;;;;;;;5076173;28;20538;-70
2024/02/27 03:01:19;;;;;;;11.10;9.25;;;;;;;;;;5076248;28;20272;-70
2024/02/27 03:03:46;;;;;;;12.65;8.63;;;;;;;;;;5076163;28;20185;-70
2024/02/27 03:06:13;;;;;;;11.60;9.60;;;;;;;;;;5075996;28;20296;-70
2024/02/27 03:08:40;;;;;;;11.45;9.48;;;;;;;;;;5076172;28;20492;-70
2024/02/27 03:11:07;;;;;;;10.77;9.43;;;;;;;;;;5076164;28;20758;-70
2024/02/27 03:13:35;;;;;;;11.80;9.40;;;;;;;;;;5075951;28;20534;-70
2024/02/27 03:16:02;;;;;;;9.20;8.30;;;;;;;;;;5075998;28;20492;-70
2024/02/27 03:18:29;;;;;;;11.27;9.50;;;;;;;;;;5075848;28;20475;-71
2024/02/27 03:20:56;;;;;;;10.33;8.83;;;;;;;;;;5075778;28;20535;-70
2024/02/27 03:23:23;;;;;;;9.40;8.33;;;;;;;;;;5075885;28;20529;-70
2024/02/27 03:25:50;;;;;;;14.30;9.30;;;;;;;;;;5075854;28;20534;-70
2024/02/27 03:28:17;;;;;;;9.23;8.13;;;;;;;;;;5075676;28;20479;-70
2024/02/27 03:30:45;;;;;;;10.40;8.90;;;;;;;;;;5075707;28;20190;-70
2024/02/27 03:33:12;;;;;;;10.00;8.70;;;;;;;;;;5075598;28;20538;-70
2024/02/27 03:35:39;;;;;;;10.03;8.33;;;;;;;;;;5075502;28;20189;-70
2024/02/27 03:38:08;;;;;;;9.53;8.63;;;;;;;;;;5075668;28;20466;-70
2024/02/27 03:40:35;;;;;;;12.20;8.43;;;;;;;;;;5075234;28;21079;-70
2024/02/27 03:43:02;;;;;;;10.70;8.90;;;;;;;;;;5075476;28;20521;-70
2024/02/27 03:45:28;;;;;;;10.70;9.47;;;;;;;;;;5075467;28;20221;-70
2024/02/27 03:47:57;;;;;;;11.07;7.93;;;;;;;;;;5075212;28;20479;-70
2024/02/27 03:50:24;;;;;;;10.43;8.83;;;;;;;;;;5075489;28;20532;-70
2024/02/27 03:52:51;;;;;;;10.50;8.77;;;;;;;;;;5075310;28;20526;-69
2024/02/27 03:55:17;;;;;;;10.03;8.53;;;;;;;;;;5075314;28;20553;-70
2024/02/27 03:57:44;;;;;;;9.50;7.43;;;;;;;;;;5075212;28;20539;-70
2024/02/27 04:00:13;;;;;;;11.70;8.77;;;;;;;;;;5073962;28;20530;-70
2024/02/27 04:02:40;;;;;;;9.50;8.60;;;;;;;;;;5074973;28;20447;-70
2024/02/27 04:05:10;;;;;;;9.00;8.07;;;;;;;;;;5075195;28;20220;-70
2024/02/27 04:07:37;;;;;;;10.07;8.97;;;;;;;;;;5074932;28;20526;-70
2024/02/27 04:10:04;;;;;;;11.67;8.93;;;;;;;;;;5074963;28;20439;-70
2024/02/27 04:12:31;;;;;;;9.37;8.47;;;;;;;;;;5074854;28;20538;-70
2024/02/27 04:14:58;;;;;;;12.20;9.90;;;;;;;;;;5074707;28;20538;-70
2024/02/27 04:17:25;;;;;;;10.97;9.00;;;;;;;;;;5074924;28;20475;-70
2024/02/27 04:19:53;;;;;;;10.27;9.30;;;;;;;;;;5074882;28;21002;-70
2024/02/27 04:22:22;;;;;;;11.20;9.85;;;;;;;;;;5074730;28;20501;-70
2024/02/27 04:24:49;;;;;;;10.40;9.37;;;;;;;;;;5074656;28;20276;-70
2024/02/27 04:27:16;;;;;;;10.73;8.80;;;;;;;;;;5074569;28;20540;-70
2024/02/27 04:29:43;;;;;;;14.30;10.37;;;;;;;;;;5074280;28;20235;-70
2024/02/27 04:32:11;;;;;;;16.37;10.13;;;;;;;;;;5074613;28;20447;-70
2024/02/27 04:34:37;;;;;;;12.60;9.77;;;;;;;;;;5074323;28;20999;-70
2024/02/27 04:37:05;;;;;;;10.73;9.40;;;;;;;;;;5074293;28;21035;-70
2024/02/27 04:39:33;;;;;;;17.40;11.00;;;;;;;;;;5074153;28;20471;-70
2024/02/27 04:42:00;;;;;;;13.23;9.80;;;;;;;;;;5074170;28;20531;-69
2024/02/27 04:44:27;;;;;;;12.20;9.87;;;;;;;;;;5074116;28;20522;-70
2024/02/27 04:46:54;;;;;;;13.27;10.37;;;;;;;;;;5074255;28;20513;-70
2024/02/27 04:49:20;;;;;;;12.35;10.70;;;;;;;;;;5074064;28;21001;-70
2024/02/27 04:51:47;;;;;;;13.63;11.50;;;;;;;;;;5074136;28;20284;-70
2024/02/27 04:54:14;;;;;;;10.90;9.60;;;;;;;;;;5074076;28;20478;-70
2024/02/27 04:56:43;;;;;;;11.97;10.73;;;;;;;;;;5073906;28;20443;-70
2024/02/27 04:59:10;;;;;;;13.10;11.00;;;;;;;;;;5074084;28;20440;-70
2024/02/27 05:01:37;;;;;;;12.23;10.50;;;;;;;;;;5073903;28;20538;-70
2024/02/27 05:04:04;;;;;;;11.95;10.68;;;;;;;;;;5073882;28;20443;-70
2024/02/27 05:06:31;;;;;;;15.67;11.43;;;;;;;;;;5073732;28;20279;-70
2024/02/27 05:08:58;;;;;;;15.48;11.13;;;;;;;;;;5073666;28;20485;-70
2024/02/27 05:11:26;;;;;;;12.07;10.57;;;;;;;;;;5073347;28;20612;-70
2024/02/27 05:13:54;;;;;;;12.80;11.50;;;;;;;;;;5073819;28;20189;-70
2024/02/27 05:16:21;;;;;;;16.88;12.73;;;;;;;;;;5073666;28;20450;-70
2024/02/27 05:18:48;;;;;;;15.07;11.55;;;;;;;;;;5073597;28;20193;-70
2024/02/27 05:21:15;;;;;;;14.93;13.10;;;;;;;;;;5073531;28;20247;-70
2024/02/27 05:23:42;;;;;;;15.48;12.75;;;;;;;;;;5073269;28;20953;-70
2024/02/27 05:26:09;;;;;;;13.02;11.35;;;;;;;;;;5073432;28;20281;-70
2024/02/27 05:28:36;;;;;;;15.30;11.50;;;;;;;;;;5073283;28;20221;-70
2024/02/27 05:31:21;;;;;;;16.80;12.80;;;;;;;;;;5073370;28;20451;-70
2024/02/27 05:33:48;;;;;;;15.80;12.17;;;;;;;;;;5073390;28;20189;-70
2024/02/27 05:36:15;;;;;;;15.90;12.40;;;;;;;;;;5073151;28;21003;-70
2024/02/27 05:38:43;;;;;;;15.10;12.65;;;;;;;;;;5073141;28;20558;-70
2024/02/27 05:41:10;;;;;;;17.30;12.93;;;;;;;;;;5073288;28;20189;-70
2024/02/27 05:43:37;;;;;;;15.65;12.30;;;;;;;;;;5073254;28;20447;-69
2024/02/27 05:46:06;;;;;;;17.58;14.10;;;;;;;;;;5073152;28;20276;-70
2024/02/27 05:48:33;;;;;;;18.33;13.03;;;;;;;;;;5072771;28;20692;-70
2024/02/27 05:51:00;;;;;;;17.60;12.77;;;;;;;;;;5072845;28;20439;-70
2024/02/27 05:53:29;;;;;;;15.85;12.65;;;;;;;;;;5073179;28;20276;-70
2024/02/27 05:55:56;;;;;;;16.20;13.27;;;;;;;;;;5073079;28;20254;-70
2024/02/27 05:58:24;;;;;;;18.23;14.23;;;;;;;;;;5073074;28;20197;-70
2024/02/27 06:00:51;;;;;;;19.48;12.35;;;;;;;;;;5072829;28;20633;-70
2024/02/27 06:03:20;;;;;;;16.70;12.77;;;;;;;;;;5072850;28;20276;-70
2024/02/27 06:05:47;;;;;;;17.20;13.50;;;;;;;;;;5073071;28;20276;-70
2024/02/27 06:08:14;;;;;;;16.15;13.38;;;;;;;;;;5072956;28;20874;-70
2024/02/27 06:10:41;;;;;;;16.33;13.55;;;;;;;;;;5072828;28;20185;-70
2024/02/27 06:13:09;;;;;;;15.93;13.50;;;;;;;;;;5072783;28;20283;-70
2024/02/27 06:15:36;;;;;;;17.15;14.10;;;;;;;;;;5072665;28;20189;-70
2024/02/27 06:18:04;;;;;;;21.05;13.70;;;;;;;;;;5072615;28;20189;-70
2024/02/27 06:23:13;;;;;;;18.92;13.90;;;;;;;;;;5039695;28;20644;-70
2024/02/27 06:25:40;;;;;;;15.00;13.40;;;;;;;;;;5076801;28;20668;-70
2024/02/27 06:28:07;;;;;;;16.63;13.38;;;;;;;;;;5076592;28;20708;-70
2024/02/27 06:30:34;;;;;;;15.00;13.38;;;;;;;;;;5076609;28;20288;-70
2024/02/27 06:33:01;;;;;;;17.27;14.70;;;;;;;;;;5076934;28;20189;-71
2024/02/27 06:35:28;;;;;;;19.15;14.50;;;;;;;;;;5076705;28;20295;-71
2024/02/27 06:37:56;;;;;;;20.48;14.18;;;;;;;;;;5076550;28;20726;-71
2024/02/27 06:40:23;;;;;;;20.90;14.07;;;;;;;;;;5076317;28;20231;-70
2024/02/27 06:42:50;;;;;;;15.05;13.13;;;;;;;;;;5076438;28;20530;-70
2024/02/27 06:45:17;;;;;;;15.73;13.63;;;;;;;;;;5076623;28;20668;-70
2024/02/27 06:47:44;;;;;;;19.33;15.55;;;;;;;;;;5076306;28;20228;-69
2024/02/27 06:50:12;;;;;;;22.80;15.05;;;;;;;;;;5076192;28;20213;-70
2024/02/27 06:52:39;;;;;;;20.13;15.07;;;;;;;;;;5076370;28;20197;-70
2024/02/27 06:55:08;;;;;;;23.17;15.93;;;;;;;;;;5076303;28;20635;-70
2024/02/27 06:57:35;;;;;;;21.13;16.83;;;;;;;;;;5076109;28;20189;-70
2024/02/27 07:00:04;;;;;;;22.77;17.33;;;;;;;;;;5076265;28;20185;-69
2024/02/27 07:02:33;;;;;;;24.77;17.85;;;;;;;;;;5076215;28;20564;-70
2024/02/27 07:05:00;;;;;;;23.15;16.70;;;;;;;;;;5076108;28;20189;-70
2024/02/27 07:07:27;;;;;;;22.25;17.60;;;;;;;;;;5076051;28;20281;-70
2024/02/27 07:09:54;;;;;;;22.92;16.63;;;;;;;;;;5075687;28;20690;-70
2024/02/27 07:12:22;;;;;;;27.27;17.67;;;;;;;;;;5075916;28;20649;-70
2024/02/27 07:14:49;;;;;;;31.37;18.03;;;;;;;;;;5075823;28;20197;-70
2024/02/27 07:17:16;;;;;;;27.70;18.55;;;;;;;;;;5075957;28;20455;-70
2024/02/27 07:19:44;;;;;;;31.07;19.23;;;;;;;;;;5075873;28;20193;-70
2024/02/27 07:22:11;;;;;;;25.75;19.55;;;;;;;;;;5075745;28;20451;-70
2024/02/27 07:24:38;;;;;;;31.20;21.23;;;;;;;;;;5075720;28;20189;-70
2024/02/27 07:27:05;;;;;;;30.70;19.40;;;;;;;;;;5075766;28;20199;-70
2024/02/27 07:29:33;;;;;;;26.65;19.70;;;;;;;;;;5075779;28;20221;-70
2024/02/27 07:32:01;;;;;;;32.13;20.47;;;;;;;;;;5075662;28;20300;-70
2024/02/27 07:34:28;;;;;;;28.88;21.38;;;;;;;;;;5075401;28;20531;-70
2024/02/27 07:36:55;;;;;;;30.00;21.70;;;;;;;;;;5075513;28;20189;-71
2024/02/27 07:39:22;;;;;;;33.08;21.90;;;;;;;;;;5075040;28;20225;-70
2024/02/27 07:41:49;;;;;;;30.55;21.95;;;;;;;;;;5075591;28;20193;-70
2024/02/27 07:44:16;;;;;;;34.15;22.33;;;;;;;;;;5075423;28;20189;-70
2024/02/27 07:46:45;;;;;;;31.95;22.20;;;;;;;;;;5075459;28;20205;-70
2024/02/27 07:49:12;;;;;;;33.50;22.70;;;;;;;;;;5075275;28;20224;-70
2024/02/27 07:51:39;;;;;;;37.85;23.67;;;;;;;;;;5075068;28;20193;-70
2024/02/27 07:54:06;;;;;;;40.45;22.67;;;;;;;;;;5075324;28;20276;-70
2024/02/27 07:56:33;;;;;;;34.10;23.23;;;;;;;;;;5075132;28;20591;-70
2024/02/27 07:59:00;;;;;;;37.60;22.45;;;;;;;;;;5075045;28;20193;-70
2024/02/27 08:01:27;;;;;;;32.80;21.38;;;;;;;;;;5075038;28;20197;-70
2024/02/27 08:03:55;;;;;;;31.95;20.67;;;;;;;;;;5074956;28;20715;-70
2024/02/27 08:06:26;;;;;;;35.77;24.60;;;;;;;;;;5074811;28;20284;-70
2024/02/27 08:08:54;;;;;;;32.80;21.15;;;;;;;;;;5074821;28;20444;-71
2024/02/27 08:11:22;;;;;;;38.67;22.40;;;;;;;;;;5074916;28;20553;-70
2024/02/27 08:13:49;;;;;;;41.05;24.95;;;;;;;;;;5074680;28;20204;-70
2024/02/27 08:16:16;;;;;;;31.33;21.30;;;;;;;;;;5074706;28;20197;-71
2024/02/27 08:18:43;;;;;;;32.60;22.00;;;;;;;;;;5074608;28;20557;-69
2024/02/27 08:21:11;;;;;;;36.83;23.17;;;;;;;;;;5074486;28;20526;-70
2024/02/27 08:23:38;;;;;;;35.33;22.80;;;;;;;;;;5074738;28;20200;-70
2024/02/27 08:26:06;;;;;;;38.07;22.20;;;;;;;;;;5074676;28;20470;-71
2024/02/27 08:28:33;;;;;;;35.63;21.23;;;;;;;;;;5074726;28;20454;-72
2024/02/27 08:31:03;;;;;;;59.53;37.20;;;;;;;;;;5074303;28;20489;-70
2024/02/27 08:33:30;;;;;;;33.00;22.67;;;;;;;;;;5074380;28;20272;-70
2024/02/27 08:35:57;;;;;;;37.07;22.87;;;;;;;;;;5074470;28;20439;-70
2024/02/27 08:38:25;;;;;;;34.57;23.23;;;;;;;;;;5074201;28;21026;-69
2024/02/27 08:40:52;;;;;;;41.83;22.53;;;;;;;;;;5074229;28;20534;-71
2024/02/27 08:43:19;;;;;;;33.80;23.40;;;;;;;;;;5074164;28;20522;-71
2024/02/27 08:45:46;;;;;;;34.13;22.47;;;;;;;;;;5073582;28;20550;-71
2024/02/27 08:48:13;;;;;;;37.10;23.37;;;;;;;;;;5074157;28;20957;-71
2024/02/27 08:50:40;;;;;;;38.20;23.40;;;;;;;;;;5073869;28;20556;-71
2024/02/27 08:53:07;;;;;;;37.80;23.00;;;;;;;;;;5073536;28;20526;-71
2024/02/27 08:55:35;;;;;;;37.10;22.27;;;;;;;;;;5073671;28;20878;-72
2024/02/27 08:58:02;;;;;;;34.97;23.30;;;;;;;;;;5073898;28;20449;-72
2024/02/27 09:00:29;;;;;;;35.05;22.42;;;;;;;;;;5073791;28;20439;-71
2024/02/27 09:02:56;;;;;;;41.23;23.63;;;;;;;;;;5073891;28;20276;-72
2024/02/27 09:05:23;;;;;;;32.70;22.37;;;;;;;;;;5073177;28;20494;-71
2024/02/27 09:07:50;;;;;;;37.67;22.80;;;;;;;;;;5077608;28;20446;-70
2024/02/27 09:10:17;;;;;;;36.63;22.07;;;;;;;;;;5081973;28;20734;-70
2024/02/27 09:12:45;;;;;;;32.90;21.63;;;;;;;;;;5081588;28;20442;-71
2024/02/27 09:15:12;;;;;;;30.23;21.00;;;;;;;;;;5080640;28;20440;-70
2024/02/27 09:17:39;;;;;;;32.17;21.37;;;;;;;;;;5082503;28;20802;-71
2024/02/27 09:20:07;;;;;;;34.40;20.73;;;;;;;;;;5082549;28;20438;-71
2024/02/27 09:22:34;;;;;;;32.83;21.40;;;;;;;;;;5080063;28;20443;-70
2024/02/27 09:25:01;;;;;;;33.60;21.97;;;;;;;;;;5082218;28;20556;-72
2024/02/27 09:27:28;;;;;;;32.23;21.37;;;;;;;;;;5081939;28;20443;-70
2024/02/27 09:29:56;;;;;;;30.00;19.80;;;;;;;;;;5081519;28;20578;-70
2024/02/27 09:32:23;;;;;;;32.90;21.97;;;;;;;;;;5078551;28;20958;-71
2024/02/27 09:34:50;;;;;;;29.60;19.60;;;;;;;;;;5081284;28;20883;-71
2024/02/27 09:37:18;;;;;;;38.10;23.60;;;;;;;;;;5081235;28;20473;-69
2024/02/27 09:39:45;;;;;;;33.80;22.60;;;;;;;;;;5081538;28;20465;-71
2024/02/27 09:42:12;;;;;;;34.63;22.00;;;;;;;;;;5080726;28;20428;-71
2024/02/27 09:44:40;;;;;;;45.67;28.93;;;;;;;;;;5079921;28;20436;-72
2024/02/27 09:47:08;;;;;;;35.37;22.57;;;;;;;;;;5081434;28;20493;-69
2024/02/27 09:49:37;;;;;;;41.58;27.25;;;;;;;;;;5079038;28;20553;-71
2024/02/27 09:52:07;;;;;;;31.93;21.27;;;;;;;;;;5079141;28;20412;-71
2024/02/27 09:54:34;;;;;;;34.47;22.67;;;;;;;;;;5078678;28;20534;-71
2024/02/27 09:57:01;;;;;;;31.97;20.00;;;;;;;;;;5077229;28;20535;-70
2024/02/27 09:59:28;;;;;;;37.50;22.20;;;;;;;;;;5077917;28;20451;-71
2024/02/27 10:01:57;;;;;;;29.30;20.50;;;;;;;;;;5080381;28;20439;-71
2024/02/27 10:04:26;;;;;;;32.03;21.30;;;;;;;;;;5078838;28;20885;-70
2024/02/27 10:06:53;;;;;;;33.50;20.50;;;;;;;;;;5080060;28;20486;-71
2024/02/27 10:09:21;;;;;;;36.33;19.77;;;;;;;;;;5079671;28;20442;-71
2024/02/27 10:11:48;;;;;;;32.93;21.43;;;;;;;;;;5080036;28;20534;-71
2024/02/27 10:14:23;;;;;;;35.20;20.77;;;;;;;;;;5080102;28;20443;-71
2024/02/27 10:16:50;;;;;;;29.90;19.13;;;;;;;;;;5073514;28;20443;-71
2024/02/27 10:19:20;;;;;;;27.87;19.67;;;;;;;;;;5080864;28;20450;-71
2024/02/27 10:21:48;;;;;;;28.20;19.60;;;;;;;;;;5079348;28;20450;-71
2024/02/27 10:24:20;;;;;;;29.13;20.50;;;;;;;;;;5072439;28;20535;-71
2024/02/27 10:26:52;;;;;;;30.90;19.37;;;;;;;;;;5071545;28;20444;-70
2024/02/27 10:29:19;;;;;;;57.93;51.67;;;;;;;;;;5084656;28;20453;-71
2024/02/27 10:31:46;;;;;;;28.10;19.93;;;;;;;;;;5089689;28;20502;-71
2024/02/27 10:34:13;;;;;;;31.43;20.70;;;;;;;;;;5090615;28;20530;-71
2024/02/27 10:36:40;;;;;;;29.67;19.63;;;;;;;;;;5085473;28;20437;-71
2024/02/27 10:39:12;;;;;;;31.77;19.93;;;;;;;;;;5090579;28;20459;-70
2024/02/27 10:41:39;;;;;;;28.83;19.63;;;;;;;;;;5089676;28;20477;-71
2024/02/27 10:44:07;;;;;;;31.43;19.80;;;;;;;;;;5090557;28;20438;-71
2024/02/27 10:46:35;;;;;;;29.42;22.70;;;;;;;;;;5089233;28;20454;-70
2024/02/27 10:49:02;;;;;;;29.90;19.80;;;;;;;;;;5085722;28;20188;-70
2024/02/27 10:51:29;;;;;;;26.27;17.07;;;;;;;;;;5090526;28;21031;-71
2024/02/27 10:53:57;;;;;;;20.80;17.23;;;;;;;;;;5089678;28;20439;-71
2024/02/27 10:56:25;;;;;;;28.20;18.33;;;;;;;;;;5090445;28;20525;-71
2024/02/27 10:58:53;;;;;;;26.40;17.90;;;;;;;;;;5090423;28;20534;-70
2024/02/27 11:01:20;;;;;;;20.43;15.80;;;;;;;;;;5090234;28;20530;-69
2024/02/27 11:03:50;;;;;;;24.90;17.17;;;;;;;;;;5089835;28;20517;-69
2024/02/27 11:06:20;;;;;;;24.53;15.67;;;;;;;;;;5072090;28;20523;-71
2024/02/27 11:08:48;;;;;;;26.20;18.67;;;;;;;;;;5071759;28;20442;-71
2024/02/27 11:11:15;;;;;;;22.30;16.27;;;;;;;;;;5075295;28;20479;-71
2024/02/27 11:13:44;;;;;;;24.80;18.40;;;;;;;;;;5072704;28;20435;-71
2024/02/27 11:16:12;;;;;;;24.50;17.00;;;;;;;;;;5075361;28;20440;-70
2024/02/27 11:18:41;;;;;;;24.90;16.87;;;;;;;;;;5075409;28;20443;-69
2024/02/27 11:21:08;;;;;;;21.73;16.00;;;;;;;;;;5075419;28;20497;-69
2024/02/27 11:23:35;;;;;;;26.23;15.87;;;;;;;;;;5075201;28;20534;-70
2024/02/27 11:26:03;;;;;;;25.63;16.03;;;;;;;;;;5072583;28;20462;-70
2024/02/27 11:28:31;;;;;;;24.40;17.47;;;;;;;;;;5075145;28;20440;-70
2024/02/27 11:30:59;;;;;;;25.70;16.37;;;;;;;;;;5075173;28;20978;-70
2024/02/27 11:33:26;;;;;;;25.87;16.13;;;;;;;;;;5075479;28;21014;-69
2024/02/27 11:35:54;;;;;;;22.67;15.83;;;;;;;;;;5075516;28;20534;-71
2024/02/27 11:38:22;;;;;;;25.77;17.13;;;;;;;;;;5075123;28;20445;-70
2024/02/27 11:40:52;;;;;;;23.37;15.33;;;;;;;;;;5075325;28;20830;-69
2024/02/27 11:43:19;;;;;;;23.70;15.70;;;;;;;;;;5075377;28;20451;-70
2024/02/27 11:45:46;;;;;;;21.20;16.03;;;;;;;;;;5075350;28;20459;-70
2024/02/27 11:48:15;;;;;;;23.07;16.53;;;;;;;;;;5075322;28;20502;-69
2024/02/27 11:50:48;;;;;;;20.37;15.23;;;;;;;;;;5075190;28;20586;-69
2024/02/27 11:53:27;;;;;;;16.40;14.60;;;;;;;;;;5075177;28;20471;-69
2024/02/27 11:55:55;;;;;;;21.23;15.17;;;;;;;;;;5075256;28;20454;-69
2024/02/27 11:58:22;;;;;;;19.43;14.50;;;;;;;;;;5075276;28;20498;-69
2024/02/27 12:00:50;;;;;;;20.27;13.97;;;;;;;;;;5075083;28;20534;-70
2024/02/27 12:03:18;;;;;;;17.50;13.93;;;;;;;;;;5075055;28;20497;-70
2024/02/27 12:05:47;;;;;;;17.07;13.57;;;;;;;;;;5074955;28;20445;-70
2024/02/27 12:08:16;;;;;;;18.00;13.40;;;;;;;;;;5074788;28;20807;-70
2024/02/27 12:10:43;;;;;;;20.70;15.17;;;;;;;;;;5074925;28;20503;-70
2024/02/27 12:13:10;;;;;;;17.60;14.30;;;;;;;;;;5075005;28;21018;-69
2024/02/27 12:15:37;;;;;;;20.10;14.67;;;;;;;;;;5074832;28;20440;-69
2024/02/27 12:18:04;;;;;;;22.53;16.07;;;;;;;;;;5074765;28;20558;-69
2024/02/27 12:20:32;;;;;;;18.47;15.43;;;;;;;;;;5074229;28;20871;-69
2024/02/27 12:22:59;;;;;;;18.00;14.47;;;;;;;;;;5074382;28;20445;-69
2024/02/27 12:25:26;;;;;;;18.87;15.60;;;;;;;;;;5074758;28;20526;-70
2024/02/27 12:27:54;;;;;;;19.60;14.20;;;;;;;;;;5074489;28;20531;-69
2024/02/27 12:30:22;;;;;;;22.17;15.80;;;;;;;;;;5074380;28;20468;-70
2024/02/27 12:32:49;;;;;;;17.53;13.70;;;;;;;;;;5074340;28;20447;-69
2024/02/27 12:35:17;;;;;;;16.23;13.60;;;;;;;;;;5074266;28;20471;-70
2024/02/27 12:37:47;;;;;;;19.23;15.13;;;;;;;;;;5074454;28;20546;-70
2024/02/27 12:40:14;;;;;;;20.10;15.40;;;;;;;;;;5073785;28;20470;-69
2024/02/27 12:42:42;;;;;;;16.43;12.80;;;;;;;;;;5073907;28;20526;-69
2024/02/27 12:45:10;;;;;;;20.90;15.43;;;;;;;;;;5073601;28;20439;-69
2024/02/27 12:47:37;;;;;;;18.73;14.70;;;;;;;;;;5073640;28;20440;-69
2024/02/27 12:50:04;;;;;;;19.10;13.47;;;;;;;;;;5073933;28;20539;-69
2024/02/27 12:52:31;;;;;;;17.40;13.13;;;;;;;;;;5074030;28;20444;-69
2024/02/27 12:54:59;;;;;;;17.83;13.03;;;;;;;;;;5074021;28;20818;-69
2024/02/27 12:57:26;;;;;;;18.97;13.90;;;;;;;;;;5073966;28;20534;-68
2024/02/27 12:59:54;;;;;;;20.33;15.33;;;;;;;;;;5073782;28;20539;-68
2024/02/27 13:02:22;;;;;;;37.33;27.67;;;;;;;;;;5074110;28;20447;-69
2024/02/27 13:04:49;;;;;;;19.07;13.23;;;;;;;;;;5074000;28;20882;-69
2024/02/27 13:07:16;;;;;;;16.57;12.30;;;;;;;;;;5073754;28;20538;-69
2024/02/27 13:09:43;;;;;;;14.40;11.83;;;;;;;;;;5073695;28;20927;-69
2024/02/27 13:12:16;;;;;;;16.60;13.60;;;;;;;;;;5073585;28;21077;-69
2024/02/27 13:14:43;;;;;;;18.60;13.60;;;;;;;;;;5073556;28;20443;-69
2024/02/27 13:17:10;;;;;;;15.47;11.73;;;;;;;;;;5073328;28;20536;-69
2024/02/27 13:19:38;;;;;;;19.37;13.03;;;;;;;;;;5073356;28;20514;-69
2024/02/27 13:22:06;;;;;;;17.40;14.70;;;;;;;;;;5073462;28;20455;-69
2024/02/27 13:24:33;;;;;;;15.77;13.17;;;;;;;;;;5073337;28;20447;-69
2024/02/27 13:27:00;;;;;;;18.50;13.33;;;;;;;;;;5073323;28;20874;-69
2024/02/27 13:29:28;;;;;;;15.67;11.93;;;;;;;;;;5073314;28;20539;-69
2024/02/27 13:31:55;;;;;;;18.00;13.80;;;;;;;;;;5072738;28;20537;-69
2024/02/27 13:34:22;;;;;;;13.87;11.97;;;;;;;;;;5072832;28;20480;-70
2024/02/27 13:36:49;;;;;;;17.53;12.50;;;;;;;;;;5072846;28;20776;-69
2024/02/27 13:39:18;;;;;;;13.13;11.60;;;;;;;;;;5072965;28;20510;-70
2024/02/27 13:41:46;;;;;;;16.27;11.73;;;;;;;;;;5073084;28;20526;-69
2024/02/27 13:44:13;;;;;;;18.50;12.93;;;;;;;;;;5073281;28;20443;-69
2024/02/27 13:46:42;;;;;;;14.50;11.97;;;;;;;;;;5072949;28;20446;-69
2024/02/27 13:49:10;;;;;;;18.33;12.27;;;;;;;;;;5072918;28;20462;-70
2024/02/27 13:51:37;;;;;;;15.47;12.07;;;;;;;;;;5072823;28;20997;-70
2024/02/27 13:54:06;;;;;;;17.07;11.90;;;;;;;;;;5072901;28;20534;-69
2024/02/27 13:56:33;;;;;;;18.77;13.00;;;;;;;;;;5073102;28;20796;-70
2024/02/27 13:58:59;;;;;;;17.27;12.80;;;;;;;;;;5073083;28;20450;-70
2024/02/27 14:01:27;;;;;;;21.43;12.67;;;;;;;;;;5072882;28;20475;-70
2024/02/27 14:03:55;;;;;;;17.37;13.13;;;;;;;;;;5072816;28;20867;-70
2024/02/27 14:06:22;;;;;;;16.67;11.80;;;;;;;;;;5072785;28;20450;-70
2024/02/27 14:08:49;;;;;;;18.40;15.50;;;;;;;;;;5072624;28;20501;-70
2024/02/27 14:11:16;;;;;;;18.47;12.50;;;;;;;;;;5072756;28;20954;-70
2024/02/27 14:13:45;;;;;;;17.20;13.33;;;;;;;;;;5072834;28;20923;-69
2024/02/27 14:16:12;;;;;;;14.80;12.00;;;;;;;;;;5072897;28;20574;-69
2024/02/27 14:18:39;;;;;;;14.93;12.00;;;;;;;;;;5072667;28;20527;-69
2024/02/27 14:21:08;;;;;;;17.90;12.83;;;;;;;;;;5072644;28;21002;-69
2024/02/27 14:23:35;;;;;;;18.80;13.57;;;;;;;;;;5072672;28;20458;-68
2024/02/27 14:26:02;;;;;;;17.27;12.60;;;;;;;;;;5072814;28;20447;-70